Time;durP1;ratioP1;P1;durP2;ratioP2;P2;SDS_P1;SDS_P2;PMS_P1;PMS_P2;Temp;Humidity;BMP_temperature;BMP_pressure;BME280_temperature;BME280_humidity;BME280_pressure;Samples;Min_cycle;Max_cycle;Signal;HPM_P1;HPM_P2
2022/10/17 00:00:11;;;;;;;0.90;0.90;;;21.40;99.90;;;;;;5051712;28;20523;-68
2022/10/17 00:02:37;;;;;;;0.83;0.83;;;21.40;99.90;;;;;;5052214;28;20441;-68
2022/10/17 00:05:05;;;;;;;1.23;1.20;;;21.40;99.90;;;;;;5052317;28;20925;-68
2022/10/17 00:07:32;;;;;;;1.83;1.10;;;21.40;99.90;;;;;;5052239;28;20539;-68
2022/10/17 00:09:58;;;;;;;1.27;1.10;;;21.40;99.90;;;;;;5052877;28;20535;-69
2022/10/17 00:12:27;;;;;;;0.87;0.87;;;21.40;99.90;;;;;;5052292;28;20519;-69
2022/10/17 00:14:53;;;;;;;1.03;0.87;;;21.40;99.90;;;;;;5052588;28;21021;-69
2022/10/17 00:17:20;;;;;;;0.80;0.80;;;21.40;99.90;;;;;;5052582;28;20479;-68
2022/10/17 00:19:47;;;;;;;1.50;1.40;;;21.40;99.90;;;;;;5052179;28;20474;-68
2022/10/17 00:22:14;;;;;;;0.80;0.80;;;21.40;99.90;;;;;;5051047;28;20520;-71
2022/10/17 00:24:41;;;;;;;1.07;0.97;;;21.40;99.90;;;;;;5050515;28;20476;-69
2022/10/17 00:27:08;;;;;;;0.90;0.90;;;21.40;99.90;;;;;;5051491;28;20454;-69
2022/10/17 00:29:36;;;;;;;0.87;0.87;;;21.40;99.90;;;;;;5050766;28;20536;-68
2022/10/17 00:32:03;;;;;;;0.90;0.90;;;21.40;99.90;;;;;;5052459;28;20534;-68
2022/10/17 00:34:30;;;;;;;0.77;0.77;;;21.40;99.90;;;;;;5054956;28;20496;-69
2022/10/17 00:36:57;;;;;;;0.93;0.93;;;21.40;99.90;;;;;;5055323;28;20448;-69
2022/10/17 00:39:24;;;;;;;1.13;1.13;;;21.40;99.90;;;;;;5055086;28;20444;-69
2022/10/17 00:41:51;;;;;;;1.30;1.20;;;21.30;99.90;;;;;;5055076;28;20533;-69
2022/10/17 00:44:59;;;;;;;0.73;0.73;;;21.40;99.90;;;;;;5054541;28;20463;-69
2022/10/17 00:47:26;;;;;;;1.00;1.00;;;21.30;99.90;;;;;;5054515;28;20446;-68
2022/10/17 00:49:53;;;;;;;3.23;1.10;;;21.40;99.90;;;;;;5054783;28;20445;-66
2022/10/17 00:52:23;;;;;;;1.13;1.13;;;21.30;99.90;;;;;;5054391;28;20480;-68
2022/10/17 00:54:54;;;;;;;1.17;1.07;;;21.30;99.90;;;;;;5054995;28;20507;-69
2022/10/17 00:57:21;;;;;;;0.90;0.90;;;21.30;99.90;;;;;;5054693;28;20448;-68
2022/10/17 00:59:51;;;;;;;0.80;0.80;;;21.30;99.90;;;;;;5055042;28;20450;-68
2022/10/17 01:02:21;;;;;;;0.83;0.83;;;21.30;99.90;;;;;;5054295;28;20440;-69
2022/10/17 01:04:52;;;;;;;0.93;0.93;;;21.30;99.90;;;;;;5054966;28;20495;-68
2022/10/17 01:07:18;;;;;;;1.13;1.10;;;21.30;99.90;;;;;;5054656;28;20448;-68
2022/10/17 01:09:46;;;;;;;0.87;0.87;;;21.30;99.90;;;;;;5054874;28;20444;-67
2022/10/17 01:12:19;;;;;;;1.17;1.17;;;21.30;99.90;;;;;;5053902;28;20454;-68
2022/10/17 01:14:58;;;;;;;0.97;0.97;;;21.30;99.90;;;;;;5054383;28;20472;-69
2022/10/17 01:17:34;;;;;;;0.93;0.93;;;21.30;99.90;;;;;;5054377;28;20470;-68
2022/10/17 01:20:41;;;;;;;0.93;0.93;;;21.30;99.90;;;;;;5054483;28;20538;-67
2022/10/17 01:23:37;;;;;;;1.30;1.30;;;21.30;99.90;;;;;;5053743;28;20444;-68
2022/10/17 01:26:16;;;;;;;1.00;1.00;;;21.30;99.90;;;;;;5013030;28;20467;-69
2022/10/17 01:29:13;;;;;;;0.80;0.80;;;21.30;99.90;;;;;;5054056;28;20480;-69
2022/10/17 01:31:47;;;;;;;0.90;0.90;;;21.30;99.90;;;;;;5052203;28;20441;-69
2022/10/17 01:34:19;;;;;;;0.83;0.83;;;21.30;99.90;;;;;;5053639;28;20487;-67
2022/10/17 01:36:51;;;;;;;1.57;1.20;;;21.30;99.90;;;;;;5054001;28;20471;-67
2022/10/17 01:39:28;;;;;;;0.90;0.90;;;21.30;99.90;;;;;;5053573;28;20445;-68
2022/10/17 01:42:00;;;;;;;1.00;1.00;;;21.30;99.90;;;;;;5053800;28;20441;-69
2022/10/17 01:44:34;;;;;;;1.10;1.00;;;21.30;99.90;;;;;;5053275;28;20460;-67
2022/10/17 01:47:08;;;;;;;1.07;1.07;;;21.30;99.90;;;;;;5053789;28;20448;-68
2022/10/17 01:49:38;;;;;;;1.00;1.00;;;21.30;99.90;;;;;;5054000;28;20444;-68
2022/10/17 01:52:10;;;;;;;1.03;1.03;;;21.30;99.90;;;;;;5053784;28;20539;-68
2022/10/17 01:54:41;;;;;;;1.10;1.10;;;21.20;99.90;;;;;;5053395;28;20484;-68
2022/10/17 01:57:16;;;;;;;2.37;1.50;;;21.30;99.90;;;;;;5053834;28;20984;-68
2022/10/17 01:59:48;;;;;;;1.10;1.10;;;21.20;99.90;;;;;;5053776;28;20816;-69
2022/10/17 02:02:17;;;;;;;1.10;1.10;;;21.20;99.90;;;;;;5053166;28;20534;-69
2022/10/17 02:04:46;;;;;;;0.77;0.77;;;21.20;99.90;;;;;;5053247;28;20460;-69
2022/10/17 02:07:14;;;;;;;1.03;1.03;;;21.30;99.90;;;;;;5053537;28;20454;-69
2022/10/17 02:09:40;;;;;;;1.23;1.23;;;21.20;99.90;;;;;;5053676;28;20486;-68
2022/10/17 02:12:25;;;;;;;1.20;1.20;;;21.20;99.90;;;;;;5053189;28;20451;-69
2022/10/17 02:15:08;;;;;;;0.73;0.73;;;21.20;99.90;;;;;;5053512;28;20460;-69
2022/10/17 02:17:44;;;;;;;1.70;1.33;;;21.20;99.90;;;;;;5053239;28;20445;-69
2022/10/17 02:20:20;;;;;;;0.93;0.93;;;21.20;99.90;;;;;;5053064;28;20543;-69
2022/10/17 02:22:52;;;;;;;1.07;1.03;;;21.20;99.90;;;;;;5053132;28;20660;-69
2022/10/17 02:25:29;;;;;;;1.10;1.10;;;21.20;99.90;;;;;;5053170;28;20560;-69
2022/10/17 02:28:03;;;;;;;1.10;1.10;;;21.20;99.90;;;;;;5053187;28;20531;-69
2022/10/17 02:30:33;;;;;;;1.30;1.20;;;21.20;99.90;;;;;;5053045;28;20531;-69
2022/10/17 02:33:07;;;;;;;1.00;1.00;;;21.20;99.90;;;;;;5052832;28;20483;-68
2022/10/17 02:35:38;;;;;;;1.30;1.30;;;21.20;99.90;;;;;;5052976;28;20522;-68
2022/10/17 02:38:08;;;;;;;1.07;1.07;;;21.20;99.90;;;;;;5052572;28;20982;-68
2022/10/17 02:40:36;;;;;;;1.43;1.43;;;21.20;99.90;;;;;;5052345;28;20496;-69
2022/10/17 02:43:03;;;;;;;0.90;0.90;;;21.20;99.90;;;;;;5052611;28;20470;-68
2022/10/17 02:45:34;;;;;;;1.40;1.40;;;21.20;99.90;;;;;;5052745;28;20844;-69
2022/10/17 02:48:06;;;;;;;0.70;0.70;;;21.20;99.90;;;;;;5052525;28;20454;-69
2022/10/17 02:50:41;;;;;;;1.30;1.30;;;21.20;99.90;;;;;;5052375;28;20507;-68
2022/10/17 02:53:12;;;;;;;1.23;1.23;;;21.20;99.90;;;;;;5052223;28;20490;-68
2022/10/17 02:55:45;;;;;;;1.10;1.10;;;21.20;99.90;;;;;;5051856;28;20464;-68
2022/10/17 02:58:16;;;;;;;0.70;0.70;;;21.20;99.90;;;;;;5052560;28;20449;-68
2022/10/17 03:00:44;;;;;;;1.23;1.23;;;21.20;99.90;;;;;;5052172;28;20449;-68
2022/10/17 03:03:23;;;;;;;1.70;1.30;;;21.20;99.90;;;;;;5052079;28;20480;-68
2022/10/17 03:05:51;;;;;;;1.10;1.03;;;21.20;99.90;;;;;;5052136;28;20474;-69
2022/10/17 03:08:18;;;;;;;1.67;1.60;;;21.20;99.90;;;;;;5052261;28;20520;-69
2022/10/17 03:10:45;;;;;;;1.80;1.70;;;21.20;99.90;;;;;;5052094;28;20467;-68
2022/10/17 03:13:11;;;;;;;1.07;1.07;;;21.20;99.90;;;;;;5051214;28;20475;-69
2022/10/17 03:15:38;;;;;;;1.07;1.07;;;21.20;99.90;;;;;;5052230;28;20777;-69
2022/10/17 03:18:05;;;;;;;1.40;1.30;;;21.20;99.90;;;;;;5052293;28;20455;-67
2022/10/17 03:20:33;;;;;;;1.70;1.60;;;21.20;99.90;;;;;;5051763;28;20455;-67
2022/10/17 03:23:00;;;;;;;1.37;1.27;;;21.20;99.90;;;;;;5051829;28;20445;-67
2022/10/17 03:25:27;;;;;;;1.40;1.40;;;21.20;99.90;;;;;;5052132;28;20482;-68
2022/10/17 03:27:54;;;;;;;1.40;1.40;;;21.20;99.90;;;;;;5051793;28;20519;-68
2022/10/17 03:30:21;;;;;;;0.90;0.90;;;21.20;99.90;;;;;;5051648;28;20476;-68
2022/10/17 03:32:48;;;;;;;1.50;1.40;;;21.20;99.90;;;;;;5039147;28;20535;-68
2022/10/17 03:35:15;;;;;;;1.20;1.20;;;21.20;99.90;;;;;;5051371;28;20905;-69
2022/10/17 03:37:43;;;;;;;1.23;1.23;;;21.20;99.90;;;;;;5051839;28;20446;-68
2022/10/17 03:40:10;;;;;;;1.47;1.47;;;21.20;99.90;;;;;;5051779;28;20444;-68
2022/10/17 03:42:37;;;;;;;0.93;0.93;;;21.20;99.90;;;;;;5051118;28;20977;-67
2022/10/17 03:45:05;;;;;;;1.33;1.33;;;21.20;99.90;;;;;;5051632;28;20457;-68
2022/10/17 03:47:32;;;;;;;1.73;1.60;;;21.20;99.90;;;;;;5051458;28;20445;-68
2022/10/17 03:49:58;;;;;;;1.10;1.10;;;21.20;99.90;;;;;;5051594;28;20444;-68
2022/10/17 03:52:25;;;;;;;1.27;1.27;;;21.20;99.90;;;;;;5051291;28;20480;-68
2022/10/17 03:54:53;;;;;;;1.60;1.50;;;21.20;99.90;;;;;;5031756;28;20796;-69
2022/10/17 03:57:20;;;;;;;1.00;1.00;;;21.20;99.90;;;;;;5035238;28;20532;-69
2022/10/17 03:59:47;;;;;;;1.20;1.20;;;21.20;99.90;;;;;;5051682;28;20444;-69
2022/10/17 04:02:14;;;;;;;1.20;1.10;;;21.20;99.90;;;;;;5050880;28;20532;-65
2022/10/17 04:04:41;;;;;;;1.03;1.03;;;21.20;99.90;;;;;;5051188;28;20511;-68
2022/10/17 04:07:08;;;;;;;1.50;1.43;;;21.20;99.90;;;;;;5051311;28;20555;-69
2022/10/17 04:09:34;;;;;;;1.20;1.20;;;21.20;99.90;;;;;;5051203;28;20483;-69
2022/10/17 04:12:03;;;;;;;1.37;1.37;;;21.20;99.90;;;;;;5051025;28;20484;-69
2022/10/17 04:14:30;;;;;;;1.50;1.47;;;21.20;99.90;;;;;;5051142;28;20492;-68
2022/10/17 04:16:57;;;;;;;1.00;1.00;;;21.20;99.90;;;;;;5051280;28;20444;-67
2022/10/17 04:19:24;;;;;;;0.93;0.93;;;21.20;99.90;;;;;;5031632;28;20485;-69
2022/10/17 04:21:51;;;;;;;1.50;1.40;;;21.10;99.90;;;;;;5043269;28;20452;-69
2022/10/17 04:24:18;;;;;;;1.30;1.20;;;21.10;99.90;;;;;;5051291;28;20472;-69
2022/10/17 04:26:45;;;;;;;1.40;1.30;;;21.10;99.90;;;;;;5051440;28;20448;-68
2022/10/17 04:29:14;;;;;;;1.13;1.13;;;21.10;99.90;;;;;;5051027;28;20967;-67
2022/10/17 04:31:41;;;;;;;1.20;1.10;;;21.10;99.90;;;;;;5051029;28;20452;-67
2022/10/17 04:34:07;;;;;;;1.60;1.20;;;21.10;99.90;;;;;;5049495;28;20494;-69
2022/10/17 04:36:34;;;;;;;1.17;1.17;;;21.10;99.90;;;;;;5049925;28;20929;-69
2022/10/17 14:13:34;;;;;;;0.93;0.93;;;20.70;99.90;;;;;;5166468;27;20613;-68
2022/10/17 14:16:03;;;;;;;1.10;1.10;;;20.80;99.90;;;;;;5131448;27;20556;-68
2022/10/17 14:18:33;;;;;;;1.00;0.80;;;20.80;99.90;;;;;;5119009;28;20454;-68
2022/10/17 14:21:01;;;;;;;1.27;1.27;;;20.80;99.90;;;;;;5109637;28;20519;-68
2022/10/17 14:23:35;;;;;;;1.10;1.00;;;20.90;99.90;;;;;;5109900;28;20953;-67
2022/10/17 14:26:11;;;;;;;1.10;1.10;;;21.00;99.90;;;;;;5117052;28;20468;-68
2022/10/17 14:28:41;;;;;;;1.37;1.37;;;21.00;99.90;;;;;;5130421;28;20480;-67
2022/10/17 14:31:23;;;;;;;1.20;1.20;;;21.10;99.90;;;;;;5130617;28;20858;-68
2022/10/17 14:33:51;;;;;;;1.30;1.30;;;21.10;99.90;;;;;;5130625;28;20472;-68
2022/10/17 14:36:19;;;;;;;1.30;1.20;;;21.10;99.90;;;;;;5123048;28;20444;-68
2022/10/17 14:38:48;;;;;;;1.07;1.07;;;21.10;99.90;;;;;;5113560;28;20449;-69
2022/10/17 14:41:20;;;;;;;1.30;1.30;;;21.20;99.90;;;;;;5113201;28;20441;-68
2022/10/17 14:43:55;;;;;;;1.70;1.40;;;21.20;99.90;;;;;;5112691;28;20532;-68
2022/10/17 14:46:22;;;;;;;1.27;1.00;;;21.20;99.90;;;;;;5119830;28;20444;-68
2022/10/17 14:48:53;;;;;;;1.87;1.77;;;21.20;99.90;;;;;;5131317;28;20476;-67
2022/10/17 14:51:20;;;;;;;1.17;1.17;;;21.20;99.90;;;;;;5130453;28;20452;-68
2022/10/17 14:54:01;;;;;;;0.90;0.90;;;21.20;99.90;;;;;;5130777;28;20445;-68
2022/10/17 14:56:35;;;;;;;1.50;1.40;;;21.20;99.90;;;;;;5120589;28;20442;-68
2022/10/17 14:59:04;;;;;;;1.37;1.37;;;21.20;99.90;;;;;;5110313;28;20429;-67
2022/10/17 15:01:32;;;;;;;1.07;1.00;;;21.30;99.90;;;;;;5109499;28;20438;-66
2022/10/17 15:03:59;;;;;;;0.73;0.73;;;21.30;99.90;;;;;;5110716;28;20533;-68
2022/10/17 15:06:29;;;;;;;2.10;0.90;;;21.30;99.90;;;;;;5129568;28;20992;-67
2022/10/17 15:08:55;;;;;;;1.10;1.10;;;21.30;99.90;;;;;;5129170;28;20441;-68
2022/10/17 15:11:22;;;;;;;1.10;1.10;;;21.30;99.90;;;;;;5128767;28;20441;-69
2022/10/17 15:13:49;;;;;;;1.27;1.27;;;21.30;99.90;;;;;;5128473;28;20495;-67
2022/10/17 15:16:20;;;;;;;1.40;1.30;;;21.30;99.90;;;;;;5108652;28;20465;-66
2022/10/17 15:18:47;;;;;;;1.10;1.10;;;21.30;99.90;;;;;;5108541;28;20484;-67
2022/10/17 15:21:16;;;;;;;1.67;1.50;;;21.40;99.90;;;;;;5108587;28;20444;-66
2022/10/17 15:23:43;;;;;;;1.30;1.20;;;21.40;99.90;;;;;;5101368;28;20442;-67
2022/10/17 15:26:19;;;;;;;5.00;1.10;;;21.40;99.90;;;;;;5114715;28;20903;-68
2022/10/17 15:28:48;;;;;;;0.93;0.93;;;21.50;99.90;;;;;;5116849;28;20483;-70
2022/10/17 15:31:18;;;;;;;4.83;1.20;;;21.50;99.90;;;;;;5118696;28;20449;-68
2022/10/17 15:33:46;;;;;;;1.60;1.20;;;21.50;99.90;;;;;;5122644;28;20568;-69
2022/10/17 15:36:20;;;;;;;1.33;1.10;;;21.50;99.90;;;;;;5094890;28;20541;-68
2022/10/17 15:38:47;;;;;;;1.13;1.13;;;21.50;99.90;;;;;;5110241;28;20449;-67
2022/10/17 15:41:14;;;;;;;1.30;1.20;;;21.50;99.90;;;;;;5114778;28;20451;-67
2022/10/17 15:43:41;;;;;;;1.20;1.20;;;21.50;99.90;;;;;;5114449;28;20437;-68
2022/10/17 15:46:20;;;;;;;1.17;1.10;;;21.50;99.90;;;;;;5106827;28;20469;-67
2022/10/17 15:48:47;;;;;;;1.17;1.17;;;21.50;99.90;;;;;;5094284;28;20446;-68
2022/10/17 15:51:14;;;;;;;1.40;1.40;;;21.50;99.90;;;;;;5094520;28;20975;-66
2022/10/17 15:53:41;;;;;;;1.57;1.50;;;21.50;99.90;;;;;;5095220;28;20478;-69
2022/10/17 15:56:16;;;;;;;1.40;1.30;;;21.50;99.90;;;;;;5119730;27;20457;-66
2022/10/17 15:58:43;;;;;;;1.60;1.17;;;21.50;99.90;;;;;;5115469;28;20634;-66
2022/10/17 16:01:18;;;;;;;1.60;1.13;;;21.50;99.90;;;;;;5103333;28;20478;-66
2022/10/17 16:03:49;;;;;;;1.30;1.30;;;21.50;99.90;;;;;;5094348;28;20430;-71
2022/10/17 16:06:16;;;;;;;1.30;1.30;;;21.50;99.90;;;;;;5094419;28;20466;-67
2022/10/17 16:08:43;;;;;;;1.10;1.00;;;21.50;99.90;;;;;;5094328;28;20908;-68
2022/10/17 16:11:16;;;;;;;1.23;1.23;;;21.50;99.90;;;;;;5094681;28;20438;-70
2022/10/17 16:13:49;;;;;;;1.50;1.40;;;21.50;99.90;;;;;;5108437;28;20560;-70
2022/10/17 16:16:16;;;;;;;2.50;1.67;;;21.50;99.90;;;;;;5114003;28;20449;-69
2022/10/17 16:18:43;;;;;;;1.13;1.13;;;21.50;99.90;;;;;;5101576;28;20474;-68
2022/10/17 16:21:12;;;;;;;1.20;1.10;;;21.50;99.90;;;;;;5093615;28;20521;-67
2022/10/17 16:23:39;;;;;;;1.27;1.27;;;21.50;99.90;;;;;;5093746;28;20441;-68
2022/10/17 16:26:06;;;;;;;1.50;1.40;;;21.60;99.90;;;;;;5093554;28;20820;-68
2022/10/17 16:28:33;;;;;;;1.23;1.20;;;21.60;99.90;;;;;;5105064;28;20445;-70
2022/10/17 16:31:00;;;;;;;1.37;1.37;;;21.50;99.90;;;;;;5113916;28;20452;-67
2022/10/17 16:33:27;;;;;;;1.63;1.13;;;21.60;99.90;;;;;;5113438;28;20568;-67
2022/10/17 16:35:54;;;;;;;1.40;1.30;;;21.60;99.90;;;;;;5112542;28;20466;-67
2022/10/17 16:38:22;;;;;;;1.10;1.10;;;21.60;99.90;;;;;;5103213;28;20439;-68
2022/10/17 16:40:49;;;;;;;1.43;1.33;;;21.50;99.90;;;;;;5093500;28;20475;-67
2022/10/17 16:43:16;;;;;;;0.90;0.90;;;21.60;99.90;;;;;;5092912;28;20879;-66
2022/10/17 16:45:43;;;;;;;1.40;1.40;;;21.60;99.90;;;;;;5094787;28;20467;-68
2022/10/17 16:48:11;;;;;;;1.67;1.57;;;21.60;99.90;;;;;;5095362;28;20447;-67
2022/10/17 16:50:39;;;;;;;1.37;1.17;;;21.60;99.90;;;;;;5094310;28;20894;-68
2022/10/17 16:53:06;;;;;;;1.00;1.00;;;21.70;99.90;;;;;;5094168;28;20488;-68
2022/10/17 16:55:35;;;;;;;1.40;1.30;;;21.70;99.90;;;;;;5094248;28;20821;-69
2022/10/17 16:58:01;;;;;;;1.33;1.27;;;21.70;99.90;;;;;;5100655;28;20438;-69
2022/10/17 17:00:29;;;;;;;1.00;1.00;;;21.70;99.90;;;;;;5113760;28;20442;-69
2022/10/17 17:02:56;;;;;;;1.13;1.10;;;21.80;99.90;;;;;;5114384;28;20957;-68
2022/10/17 17:05:23;;;;;;;1.13;1.00;;;21.80;99.90;;;;;;5115099;28;21039;-68
2022/10/17 17:07:49;;;;;;;0.70;0.70;;;21.80;99.90;;;;;;5095456;28;20447;-68
2022/10/17 17:10:17;;;;;;;1.00;1.00;;;21.80;99.90;;;;;;5094750;28;20492;-67
2022/10/17 17:12:45;;;;;;;1.43;1.33;;;21.80;99.90;;;;;;5094086;28;20887;-69
2022/10/17 17:15:12;;;;;;;1.00;1.00;;;21.80;99.90;;;;;;5094352;28;20545;-68
2022/10/17 17:17:39;;;;;;;1.00;1.00;;;21.80;99.90;;;;;;5100403;28;20447;-67
2022/10/17 17:20:07;;;;;;;1.17;1.03;;;21.90;99.90;;;;;;5092944;28;20923;-67
2022/10/17 17:22:34;;;;;;;1.30;1.30;;;21.80;99.90;;;;;;5092436;28;20435;-68
2022/10/17 17:25:01;;;;;;;1.10;1.10;;;21.80;99.90;;;;;;5092547;28;20489;-69
2022/10/17 17:27:28;;;;;;;1.07;1.07;;;21.80;99.90;;;;;;5107964;28;20457;-70
2022/10/17 17:29:57;;;;;;;1.10;1.10;;;21.90;99.90;;;;;;5113154;28;20453;-70
2022/10/17 17:32:24;;;;;;;0.90;0.90;;;21.90;99.90;;;;;;5113112;28;20845;-70
2022/10/17 17:34:51;;;;;;;1.03;1.00;;;21.90;99.90;;;;;;5113051;28;20912;-70
2022/10/17 17:37:18;;;;;;;0.90;0.90;;;21.90;99.90;;;;;;5096550;28;20947;-68
2022/10/17 17:39:45;;;;;;;1.10;1.00;;;21.90;99.90;;;;;;5092605;28;20485;-70
2022/10/17 17:42:12;;;;;;;1.20;1.20;;;21.90;99.90;;;;;;5092599;28;21031;-69
2022/10/17 17:44:39;;;;;;;0.70;0.70;;;21.90;99.90;;;;;;5092379;28;20524;-70
2022/10/17 17:47:07;;;;;;;1.30;1.30;;;21.90;99.90;;;;;;5097686;28;20438;-68
2022/10/17 17:49:34;;;;;;;2.03;1.83;;;21.90;99.90;;;;;;5102396;28;20437;-68
2022/10/17 17:52:01;;;;;;;0.90;0.90;;;21.90;99.90;;;;;;5112725;28;20445;-69
2022/10/17 17:54:28;;;;;;;1.23;1.23;;;22.00;99.90;;;;;;5112571;28;20478;-68
2022/10/17 17:56:55;;;;;;;1.03;1.03;;;22.00;99.90;;;;;;5111031;28;20942;-69
2022/10/17 17:59:22;;;;;;;1.00;1.00;;;22.00;99.90;;;;;;5105283;28;20859;-69
2022/10/17 18:01:49;;;;;;;1.30;1.30;;;22.00;99.90;;;;;;5092500;28;20533;-67
2022/10/17 18:04:17;;;;;;;1.90;1.73;;;22.00;99.90;;;;;;5095662;28;20455;-66
2022/10/17 18:06:45;;;;;;;1.30;1.30;;;21.90;99.90;;;;;;5110387;28;20897;-69
2022/10/17 18:09:11;;;;;;;1.67;1.57;;;21.90;99.90;;;;;;5112676;28;20532;-68
2022/10/17 18:11:38;;;;;;;2.57;1.53;;;21.90;99.90;;;;;;5112352;28;20540;-69
2022/10/17 18:14:07;;;;;;;1.90;1.43;;;21.90;99.90;;;;;;5099843;28;20479;-66
2022/10/17 18:16:36;;;;;;;1.07;1.00;;;21.90;99.90;;;;;;5092027;28;20469;-68
2022/10/17 18:19:05;;;;;;;1.53;1.43;;;21.90;99.90;;;;;;5091879;28;20801;-67
2022/10/17 18:21:33;;;;;;;2.30;1.80;;;21.90;99.90;;;;;;5092292;28;20443;-67
2022/10/17 18:24:01;;;;;;;1.10;1.10;;;21.90;99.90;;;;;;5091430;28;20999;-69
2022/10/17 18:26:28;;;;;;;1.37;1.10;;;22.00;99.90;;;;;;5093150;28;20469;-66
2022/10/17 18:28:55;;;;;;;1.20;1.20;;;21.90;99.90;;;;;;5091791;28;20916;-67
2022/10/17 18:31:27;;;;;;;1.20;1.20;;;21.90;99.90;;;;;;5104194;28;20954;-67
2022/10/17 18:33:55;;;;;;;1.10;0.97;;;22.00;99.90;;;;;;5112671;28;20560;-69
2022/10/17 18:36:22;;;;;;;1.17;1.03;;;21.90;99.90;;;;;;5097890;28;20538;-68
2022/10/17 18:38:50;;;;;;;1.00;0.90;;;22.00;99.90;;;;;;5092660;28;21014;-65
2022/10/17 18:41:19;;;;;;;1.00;1.00;;;21.90;99.90;;;;;;5092116;28;20529;-68
2022/10/17 18:43:47;;;;;;;1.33;1.00;;;22.00;99.90;;;;;;5091788;28;20441;-68
2022/10/17 18:46:16;;;;;;;0.90;0.90;;;21.90;99.90;;;;;;5091939;28;20447;-68
2022/10/17 18:48:44;;;;;;;0.90;0.90;;;22.00;99.90;;;;;;5107939;28;20448;-69
2022/10/17 18:51:12;;;;;;;1.13;1.13;;;21.90;99.90;;;;;;5112207;28;20445;-70
2022/10/17 18:53:40;;;;;;;1.30;1.07;;;22.00;99.90;;;;;;5111779;28;20567;-69
2022/10/17 18:56:09;;;;;;;1.10;1.00;;;22.00;99.90;;;;;;5112182;28;20788;-69
2022/10/17 18:58:37;;;;;;;1.03;1.03;;;22.00;99.90;;;;;;5113288;28;20473;-68
2022/10/17 19:01:05;;;;;;;1.00;1.00;;;22.00;99.90;;;;;;5099627;28;20447;-69
2022/10/17 19:03:32;;;;;;;1.37;1.27;;;22.00;99.90;;;;;;5095328;28;20517;-70
2022/10/17 19:06:06;;;;;;;1.40;1.40;;;22.00;99.90;;;;;;5095464;28;20537;-69
2022/10/17 19:08:32;;;;;;;1.30;1.20;;;22.00;99.90;;;;;;5104143;28;20449;-69
2022/10/17 19:11:05;;;;;;;1.10;1.00;;;22.00;99.90;;;;;;5115445;28;20442;-69
2022/10/17 19:13:34;;;;;;;1.20;1.20;;;22.00;99.90;;;;;;5115469;28;20484;-69
2022/10/17 19:16:05;;;;;;;0.97;0.97;;;22.00;99.90;;;;;;5115650;28;20461;-69
2022/10/17 19:18:32;;;;;;;0.90;0.90;;;22.00;99.90;;;;;;5106300;28;20951;-68
2022/10/17 19:21:02;;;;;;;0.90;0.90;;;22.00;99.90;;;;;;5095215;28;20777;-67
2022/10/17 19:23:30;;;;;;;0.93;0.93;;;22.00;99.90;;;;;;5094722;28;20438;-68
2022/10/17 19:26:02;;;;;;;1.83;1.60;;;22.00;99.90;;;;;;5095123;28;20836;-68
2022/10/17 19:28:29;;;;;;;1.40;1.30;;;22.00;99.90;;;;;;5095256;28;20519;-69
2022/10/17 19:30:58;;;;;;;1.23;1.00;;;22.00;99.90;;;;;;5104794;28;20504;-68
2022/10/17 19:33:26;;;;;;;1.07;1.07;;;22.00;99.90;;;;;;5115061;28;20485;-69
2022/10/17 19:35:57;;;;;;;1.50;1.43;;;22.00;99.90;;;;;;5115160;28;20500;-70
2022/10/17 19:38:24;;;;;;;1.20;1.20;;;22.00;99.90;;;;;;5113614;28;20520;-68
2022/10/17 19:40:51;;;;;;;1.23;1.23;;;21.90;99.90;;;;;;5115326;28;20448;-69
2022/10/17 19:43:18;;;;;;;1.67;1.67;;;21.90;99.90;;;;;;5114839;28;20434;-70
2022/10/17 19:45:54;;;;;;;1.20;1.20;;;22.00;99.90;;;;;;5115010;28;20458;-68
2022/10/17 19:48:23;;;;;;;1.20;1.20;;;22.00;99.90;;;;;;5110187;28;20446;-68
2022/10/17 19:50:51;;;;;;;1.43;1.37;;;22.00;99.90;;;;;;5109821;28;20536;-68
2022/10/17 19:53:18;;;;;;;1.60;1.50;;;22.00;99.90;;;;;;5114932;28;20897;-68
2022/10/17 19:55:45;;;;;;;1.40;1.30;;;22.00;99.90;;;;;;5115116;28;20461;-69
2022/10/17 19:58:12;;;;;;;0.80;0.80;;;22.00;99.90;;;;;;5115230;28;20481;-70
